Time;durP1;ratioP1;P1;durP2;ratioP2;P2;SDS_P1;SDS_P2;PMS_P1;PMS_P2;Temp;Humidity;BMP_temperature;BMP_pressure;BME280_temperature;BME280_humidity;BME280_pressure;Samples;Min_cycle;Max_cycle;Signal;HPM_P1;HPM_P2
2022/08/22 00:00:16;;;;;;;15.63;14.73;;;;;;;;;;5038784;28;20031;-59
2022/08/22 00:03:10;;;;;;;14.82;13.98;;;;;;;;;;5036846;28;20078;-60
2022/08/22 00:06:15;;;;;;;15.00;14.13;;;;;;;;;;5037689;28;20040;-59
2022/08/22 00:09:02;;;;;;;14.77;13.88;;;;;;;;;;5035707;28;20432;-59
2022/08/22 00:11:44;;;;;;;15.93;15.02;;;;;;;;;;5034180;28;20555;-59
2022/08/22 00:14:21;;;;;;;17.35;16.35;;;;;;;;;;5035716;28;20033;-59
2022/08/22 00:17:08;;;;;;;17.48;16.48;;;;;;;;;;5033900;28;20037;-59
2022/08/22 00:19:42;;;;;;;16.90;15.95;;;;;;;;;;5031804;28;20028;-59
2022/08/22 00:22:16;;;;;;;16.13;15.23;;;;;;;;;;5036964;28;20033;-59
2022/08/22 00:25:04;;;;;;;17.25;16.27;;;;;;;;;;5037065;28;20398;-59
2022/08/22 00:27:46;;;;;;;16.77;15.88;;;;;;;;;;5035381;28;20080;-60
2022/08/22 00:30:16;;;;;;;20.48;19.38;;;;;;;;;;5035856;28;20029;-59
2022/08/22 00:32:49;;;;;;;18.30;17.30;;;;;;;;;;5034145;28;20029;-62
2022/08/22 00:35:38;;;;;;;20.25;19.15;;;;;;;;;;5035224;28;20052;-61
2022/08/22 00:38:09;;;;;;;17.58;16.58;;;;;;;;;;5037792;28;20704;-60
2022/08/22 00:40:44;;;;;;;;;;;;;;;;;;5034507;28;20033;-59
2022/08/22 00:43:24;;;;;;;13.25;12.45;;;;;;;;;;5036083;28;20045;-59
2022/08/22 00:46:14;;;;;;;16.33;15.43;;;;;;;;;;5034306;28;20029;-59
2022/08/22 00:49:01;;;;;;;13.02;12.27;;;;;;;;;;5036015;28;20087;-59
2022/08/22 00:51:48;;;;;;;15.43;14.52;;;;;;;;;;5033651;28;20045;-59
2022/08/22 00:54:44;;;;;;;16.52;15.63;;;;;;;;;;5035862;28;20040;-59
2022/08/22 00:57:27;;;;;;;19.17;18.15;;;;;;;;;;5037083;28;20452;-59
2022/08/22 01:00:12;;;;;;;20.10;19.00;;;;;;;;;;5035265;28;20025;-60
2022/08/22 01:03:12;;;;;;;16.20;15.30;;;;;;;;;;5032001;28;20040;-60
2022/08/22 01:06:00;;;;;;;17.88;16.88;;;;;;;;;;5034310;28;20399;-59
2022/08/22 01:08:43;;;;;;;18.70;17.48;;;;;;;;;;5037231;28;20033;-60
2022/08/22 01:11:26;;;;;;;22.33;21.13;;;;;;;;;;5033509;28;20040;-60
2022/08/22 01:14:06;;;;;;;23.95;22.65;;;;;;;;;;5034743;28;20041;-60
2022/08/22 01:16:59;;;;;;;17.92;16.92;;;;;;;;;;5039074;28;20045;-60
2022/08/22 01:19:57;;;;;;;16.75;15.85;;;;;;;;;;5033310;28;20029;-60
2022/08/22 01:22:53;;;;;;;17.75;16.75;;;;;;;;;;5042477;28;20025;-60
2022/08/22 01:25:55;;;;;;;20.70;19.60;;;;;;;;;;5037889;28;20035;-60
2022/08/22 01:28:54;;;;;;;15.52;14.63;;;;;;;;;;5037551;28;20025;-60
2022/08/22 01:31:46;;;;;;;21.48;20.33;;;;;;;;;;5036373;28;20025;-60
2022/08/22 01:34:12;;;;;;;21.27;20.10;;;;;;;;;;5036322;28;20036;-60
2022/08/22 01:37:01;;;;;;;18.38;17.38;;;;;;;;;;5036466;28;20040;-60
2022/08/22 01:39:36;;;;;;;20.40;19.30;;;;;;;;;;5040621;28;20037;-60
2022/08/22 01:42:19;;;;;;;22.63;21.38;;;;;;;;;;5035431;28;20052;-60
2022/08/22 01:45:10;;;;;;;16.25;15.35;;;;;;;;;;5037386;28;20120;-60
2022/08/22 01:47:39;;;;;;;18.05;16.98;;;;;;;;;;5038981;28;20041;-60
2022/08/22 01:50:28;;;;;;;16.90;16.00;;;;;;;;;;5039119;28;20063;-60
2022/08/22 01:53:04;;;;;;;19.08;17.88;;;;;;;;;;5039128;28;20121;-59
2022/08/22 01:55:44;;;;;;;18.70;17.70;;;;;;;;;;5038976;28;20037;-59
2022/08/22 01:58:31;;;;;;;15.18;14.32;;;;;;;;;;5036306;28;20044;-59
2022/08/22 02:01:04;;;;;;;17.65;16.65;;;;;;;;;;5037317;28;20028;-60
2022/08/22 02:03:36;;;;;;;12.82;12.10;;;;;;;;;;5036234;28;20041;-59
2022/08/22 02:06:08;;;;;;;11.10;10.40;;;;;;;;;;5040335;28;20034;-60
2022/08/22 02:08:57;;;;;;;11.52;10.82;;;;;;;;;;5037707;28;20054;-59
2022/08/22 02:11:42;;;;;;;11.10;10.43;;;;;;;;;;5036731;28;20040;-59
2022/08/22 02:14:30;;;;;;;10.15;9.55;;;;;;;;;;5039661;28;20470;-60
2022/08/22 02:17:17;;;;;;;9.38;8.77;;;;;;;;;;5037701;28;20112;-59
2022/08/22 02:20:07;;;;;;;10.10;9.50;;;;;;;;;;5036753;28;20041;-59
2022/08/22 02:22:41;;;;;;;9.70;9.10;;;;;;;;;;5038824;28;20086;-59
2022/08/22 02:25:12;;;;;;;10.80;10.15;;;;;;;;;;5037712;28;20367;-59
2022/08/22 02:27:49;;;;;;;10.68;10.02;;;;;;;;;;5037030;28;20201;-59
2022/08/22 02:30:24;;;;;;;10.45;9.85;;;;;;;;;;5036972;28;20025;-59
2022/08/22 02:33:02;;;;;;;10.20;9.60;;;;;;;;;;5044000;28;20032;-59
2022/08/22 02:35:53;;;;;;;9.75;9.15;;;;;;;;;;5036842;28;20029;-59
2022/08/22 02:38:24;;;;;;;9.48;8.88;;;;;;;;;;5036453;28;20079;-60
2022/08/22 02:41:20;;;;;;;9.98;9.38;;;;;;;;;;5038996;28;20080;-59
2022/08/22 02:43:52;;;;;;;9.98;9.38;;;;;;;;;;5033752;28;20040;-59
2022/08/22 02:46:23;;;;;;;9.50;8.90;;;;;;;;;;5038440;28;20135;-60
2022/08/22 02:49:02;;;;;;;9.55;8.95;;;;;;;;;;5040366;28;20037;-59
2022/08/22 02:51:47;;;;;;;8.90;8.30;;;;;;;;;;5035992;28;20040;-59
2022/08/22 02:54:19;;;;;;;9.70;9.10;;;;;;;;;;5037417;28;20033;-59
2022/08/22 02:56:54;;;;;;;8.95;8.35;;;;;;;;;;5035895;28;20375;-59
2022/08/22 02:59:26;;;;;;;9.70;9.10;;;;;;;;;;5035652;28;20064;-59
2022/08/22 03:01:54;;;;;;;9.15;8.55;;;;;;;;;;5037699;28;20044;-59
2022/08/22 03:04:22;;;;;;;9.50;8.90;;;;;;;;;;5034163;28;20061;-59
2022/08/22 03:06:57;;;;;;;8.68;8.13;;;;;;;;;;5044360;28;20378;-59
2022/08/22 03:09:28;;;;;;;9.23;8.63;;;;;;;;;;5034017;28;20025;-59
2022/08/22 03:12:13;;;;;;;10.07;9.48;;;;;;;;;;5034678;28;20110;-59
2022/08/22 03:15:17;;;;;;;9.35;8.75;;;;;;;;;;5035034;28;20037;-59
2022/08/22 03:18:02;;;;;;;9.45;8.85;;;;;;;;;;5034691;28;20072;-59
2022/08/22 03:20:43;;;;;;;8.73;8.18;;;;;;;;;;5037566;28;20405;-59
2022/08/22 03:23:19;;;;;;;9.23;8.63;;;;;;;;;;5038942;28;20029;-59
2022/08/22 03:25:50;;;;;;;9.98;9.38;;;;;;;;;;5037718;28;20117;-59
2022/08/22 03:28:23;;;;;;;10.55;9.95;;;;;;;;;;5033567;28;20048;-59
2022/08/22 03:31:12;;;;;;;11.07;10.40;;;;;;;;;;5038280;28;20021;-60
2022/08/22 03:33:38;;;;;;;9.05;8.45;;;;;;;;;;5036232;28;20033;-59
2022/08/22 03:36:04;;;;;;;11.38;10.68;;;;;;;;;;5036049;28;20087;-59
2022/08/22 03:38:32;;;;;;;9.43;8.82;;;;;;;;;;5037714;28;20044;-59
2022/08/22 03:41:40;;;;;;;9.57;8.98;;;;;;;;;;5037159;28;20363;-60
2022/08/22 03:44:39;;;;;;;10.02;9.43;;;;;;;;;;5034233;28;20052;-60
2022/08/22 03:47:28;;;;;;;8.13;7.63;;;;;;;;;;5034399;28;20475;-59
2022/08/22 03:50:12;;;;;;;9.38;8.77;;;;;;;;;;5039059;28;20112;-59
2022/08/22 03:53:15;;;;;;;9.80;9.20;;;;;;;;;;5037108;28;20419;-59
2022/08/22 03:56:04;;;;;;;9.50;8.90;;;;;;;;;;5035795;28;20032;-59
2022/08/22 03:58:44;;;;;;;9.93;9.32;;;;;;;;;;5034218;28;20041;-60
2022/08/22 04:01:28;;;;;;;10.27;9.68;;;;;;;;;;5032177;28;20354;-59
2022/08/22 04:04:22;;;;;;;10.13;9.52;;;;;;;;;;5036157;28;20052;-59
2022/08/22 04:07:25;;;;;;;9.52;8.93;;;;;;;;;;5034222;28;20037;-59
2022/08/22 04:10:14;;;;;;;9.65;9.05;;;;;;;;;;5033983;28;20033;-59
2022/08/22 04:13:00;;;;;;;10.00;9.40;;;;;;;;;;5010498;28;20065;-59
2022/08/22 04:16:04;;;;;;;9.82;9.23;;;;;;;;;;5036010;28;20021;-59
2022/08/22 04:19:06;;;;;;;9.40;8.80;;;;;;;;;;5034239;28;20095;-59
2022/08/22 04:22:05;;;;;;;11.35;10.65;;;;;;;;;;5035822;28;20087;-59
2022/08/22 04:24:50;;;;;;;10.73;10.05;;;;;;;;;;5029393;28;20120;-59
2022/08/22 04:27:24;;;;;;;11.07;10.38;;;;;;;;;;5033290;28;20037;-59
2022/08/22 04:30:18;;;;;;;11.50;10.75;;;;;;;;;;5036874;28;20466;-59
2022/08/22 04:33:09;;;;;;;11.43;10.73;;;;;;;;;;5035134;28;20109;-59
2022/08/22 04:35:42;;;;;;;10.75;10.10;;;;;;;;;;5033529;28;20754;-59
2022/08/22 04:38:17;;;;;;;11.73;11.02;;;;;;;;;;5035997;28;20536;-59
2022/08/22 04:40:50;;;;;;;11.88;11.07;;;;;;;;;;5032752;28;20065;-60
2022/08/22 04:43:26;;;;;;;12.02;11.32;;;;;;;;;;5034854;28;20068;-59
2022/08/22 04:46:04;;;;;;;12.75;12.02;;;;;;;;;;5026006;28;20042;-59
2022/08/22 04:48:32;;;;;;;13.77;12.88;;;;;;;;;;5036636;28;20029;-59
2022/08/22 04:51:23;;;;;;;11.45;10.75;;;;;;;;;;5033729;28;20565;-59
2022/08/22 04:53:58;;;;;;;16.42;15.52;;;;;;;;;;5037911;28;20044;-59
2022/08/22 04:57:01;;;;;;;10.82;10.18;;;;;;;;;;5036697;28;20031;-59
2022/08/22 04:59:29;;;;;;;14.05;13.10;;;;;;;;;;5037445;28;20040;-59
2022/08/22 05:01:58;;;;;;;14.02;13.23;;;;;;;;;;5037378;28;20017;-59
2022/08/22 05:04:33;;;;;;;11.05;10.38;;;;;;;;;;5036398;28;20116;-59
2022/08/22 05:07:19;;;;;;;12.90;12.13;;;;;;;;;;5035234;28;20075;-59
2022/08/22 05:10:00;;;;;;;12.70;11.90;;;;;;;;;;5039265;28;20500;-58
2022/08/22 05:12:31;;;;;;;12.32;11.63;;;;;;;;;;5039269;28;20037;-59
2022/08/22 05:15:00;;;;;;;9.55;8.95;;;;;;;;;;5035747;28;20032;-59
2022/08/22 05:17:29;;;;;;;10.75;10.05;;;;;;;;;;5041410;28;20123;-59
2022/08/22 05:19:59;;;;;;;9.90;9.30;;;;;;;;;;5036214;28;20040;-59
2022/08/22 05:22:31;;;;;;;18.40;17.40;;;;;;;;;;5038414;28;20069;-58
2022/08/22 05:25:25;;;;;;;10.20;9.57;;;;;;;;;;5039142;28;20034;-58
2022/08/22 05:28:00;;;;;;;9.82;9.20;;;;;;;;;;5036829;28;20106;-59
2022/08/22 05:30:30;;;;;;;12.52;11.82;;;;;;;;;;5039441;28;20033;-58
2022/08/22 05:33:04;;;;;;;11.77;11.07;;;;;;;;;;5037520;28;20100;-59
2022/08/22 05:35:41;;;;;;;9.27;8.68;;;;;;;;;;5036944;28;20041;-59
2022/08/22 05:38:13;;;;;;;8.25;7.65;;;;;;;;;;5041215;28;20030;-59
2022/08/22 05:40:39;;;;;;;8.48;7.97;;;;;;;;;;5037370;28;20033;-59
2022/08/22 05:43:10;;;;;;;14.63;13.77;;;;;;;;;;5043138;28;20056;-59
2022/08/22 05:45:37;;;;;;;8.02;7.53;;;;;;;;;;5041288;28;20036;-58
2022/08/22 05:48:38;;;;;;;23.63;8.38;;;;;;;;;;5039854;28;20045;-58
2022/08/22 05:51:20;;;;;;;8.63;8.02;;;;;;;;;;5024632;28;20088;-58
2022/08/22 05:53:52;;;;;;;14.18;13.38;;;;;;;;;;5035648;28;20056;-58
2022/08/22 05:56:37;;;;;;;8.77;8.20;;;;;;;;;;5033908;28;20021;-58
2022/08/22 05:59:21;;;;;;;16.58;15.63;;;;;;;;;;5040958;28;20069;-58
2022/08/22 06:02:01;;;;;;;9.68;9.07;;;;;;;;;;5035729;28;20034;-58
2022/08/22 06:04:35;;;;;;;7.85;7.35;;;;;;;;;;5034242;28;20099;-58
2022/08/22 06:07:08;;;;;;;8.73;8.05;;;;;;;;;;5036241;28;20049;-58
2022/08/22 06:10:20;;;;;;;8.55;7.95;;;;;;;;;;5036976;28;20098;-58
2022/08/22 06:12:54;;;;;;;8.60;8.00;;;;;;;;;;5022848;28;20080;-59
2022/08/22 06:15:22;;;;;;;9.40;8.70;;;;;;;;;;5036407;28;20037;-58
2022/08/22 06:17:56;;;;;;;8.05;7.55;;;;;;;;;;5039436;28;20041;-58
2022/08/22 06:20:56;;;;;;;8.60;8.10;;;;;;;;;;5039802;28;20036;-58
2022/08/22 06:23:31;;;;;;;8.73;8.13;;;;;;;;;;5004745;28;20053;-58
2022/08/22 06:26:00;;;;;;;9.90;9.20;;;;;;;;;;5036753;28;20513;-58
2022/08/22 06:28:31;;;;;;;11.73;11.02;;;;;;;;;;5036410;28;20033;-58
2022/08/22 06:30:57;;;;;;;14.32;13.48;;;;;;;;;;5036399;28;20032;-58
2022/08/22 06:33:26;;;;;;;15.60;14.68;;;;;;;;;;5034650;28;20502;-58
2022/08/22 06:39:01;;;;;;;17.45;16.45;;;;;;;;;;5035901;28;20063;-58
2022/08/22 06:41:31;;;;;;;12.23;11.50;;;;;;;;;;5037760;28;20029;-58
2022/08/22 06:43:58;;;;;;;19.00;17.58;;;;;;;;;;5040956;28;20029;-58
2022/08/22 06:46:27;;;;;;;18.73;17.58;;;;;;;;;;5034646;28;20129;-58
2022/08/22 06:48:55;;;;;;;17.77;16.70;;;;;;;;;;5034733;28;20029;-59
2022/08/22 06:51:23;;;;;;;14.93;14.05;;;;;;;;;;5034438;28;20029;-58
2022/08/22 06:53:53;;;;;;;18.80;17.80;;;;;;;;;;5036016;28;20049;-58
2022/08/22 06:56:23;;;;;;;23.03;21.63;;;;;;;;;;5036694;28;20025;-58
2022/08/22 06:58:52;;;;;;;23.27;22.05;;;;;;;;;;5039310;28;20041;-58
2022/08/22 07:01:29;;;;;;;18.23;17.23;;;;;;;;;;5039573;28;20101;-58
2022/08/22 07:04:03;;;;;;;26.00;24.55;;;;;;;;;;5036708;28;20036;-58
2022/08/22 07:06:30;;;;;;;24.17;22.88;;;;;;;;;;5035715;28;20532;-58
2022/08/22 07:08:57;;;;;;;26.27;24.88;;;;;;;;;;5036469;28;20479;-59
2022/08/22 07:11:32;;;;;;;29.33;27.80;;;;;;;;;;5035632;28;20514;-58
2022/08/22 07:14:12;;;;;;;19.42;18.38;;;;;;;;;;5036202;28;20037;-58
2022/08/22 07:16:38;;;;;;;22.85;21.65;;;;;;;;;;5034221;28;20033;-58
2022/08/22 07:19:04;;;;;;;27.50;26.10;;;;;;;;;;5032899;28;20107;-58
2022/08/22 07:21:41;;;;;;;28.33;26.83;;;;;;;;;;5038263;28;20063;-58
2022/08/22 07:24:09;;;;;;;26.40;24.48;;;;;;;;;;5035104;28;20037;-58
2022/08/22 07:26:58;;;;;;;28.77;27.08;;;;;;;;;;5035849;28;20038;-58
2022/08/22 07:29:36;;;;;;;26.83;25.38;;;;;;;;;;5037699;28;20071;-58
2022/08/22 07:32:24;;;;;;;27.90;26.30;;;;;;;;;;5034773;28;20040;-58
2022/08/22 07:35:07;;;;;;;30.67;28.50;;;;;;;;;;5038387;28;20959;-58
2022/08/22 07:37:55;;;;;;;25.63;24.23;;;;;;;;;;5035885;28;20745;-58
2022/08/22 07:40:20;;;;;;;17.55;16.60;;;;;;;;;;5034418;28;20469;-58
2022/08/22 07:43:12;;;;;;;17.48;16.48;;;;;;;;;;5035888;28;20034;-58
2022/08/22 07:45:55;;;;;;;17.70;16.50;;;;;;;;;;5025203;28;20107;-58
2022/08/22 07:48:40;;;;;;;18.65;17.65;;;;;;;;;;5032407;28;20574;-59
2022/08/22 07:51:13;;;;;;;20.73;19.58;;;;;;;;;;5036252;28;20028;-58
2022/08/22 07:53:47;;;;;;;17.73;16.73;;;;;;;;;;5036003;28;20082;-58
2022/08/22 07:56:18;;;;;;;18.77;17.67;;;;;;;;;;5034719;28;20122;-58
2022/08/22 07:58:46;;;;;;;21.00;19.83;;;;;;;;;;5040027;28;20115;-58
2022/08/22 08:01:20;;;;;;;17.60;16.60;;;;;;;;;;5034056;28;20029;-58
2022/08/22 08:03:52;;;;;;;20.65;19.55;;;;;;;;;;5038133;28;20044;-58
2022/08/22 08:06:22;;;;;;;25.90;24.50;;;;;;;;;;5031559;28;20388;-59
2022/08/22 08:08:50;;;;;;;24.48;23.13;;;;;;;;;;5037810;28;20116;-58
2022/08/22 08:11:17;;;;;;;17.27;16.30;;;;;;;;;;5035016;28;20021;-58
2022/08/22 08:13:48;;;;;;;36.42;34.53;;;;;;;;;;5035764;28;20573;-58
2022/08/22 08:16:22;;;;;;;14.57;13.68;;;;;;;;;;5034089;28;20103;-58
2022/08/22 08:18:50;;;;;;;17.40;16.40;;;;;;;;;;5032943;28;20044;-58
2022/08/22 08:21:37;;;;;;;36.03;34.17;;;;;;;;;;5034360;28;20057;-59
2022/08/22 08:24:06;;;;;;;48.88;46.22;;;;;;;;;;5033689;28;20029;-59
2022/08/22 08:26:34;;;;;;;49.67;47.13;;;;;;;;;;5034267;28;20453;-59
2022/08/22 08:29:01;;;;;;;63.50;60.10;;;;;;;;;;5033770;28;20043;-59
2022/08/22 08:31:32;;;;;;;66.13;62.78;;;;;;;;;;5040367;28;20056;-59
2022/08/22 08:34:05;;;;;;;45.42;41.55;;;;;;;;;;5038901;28;20525;-61
2022/08/22 08:36:41;;;;;;;70.20;66.65;;;;;;;;;;5039423;28;20036;-60
2022/08/22 08:39:15;;;;;;;113.85;108.15;;;;;;;;;;5037459;28;20387;-59
2022/08/22 08:42:01;;;;;;;74.53;70.75;;;;;;;;;;5037490;28;20485;-61
2022/08/22 08:44:54;;;;;;;120.15;114.13;;;;;;;;;;5040444;28;20109;-62
2022/08/22 08:47:39;;;;;;;102.80;97.72;;;;;;;;;;5038837;28;20033;-62
2022/08/22 08:50:22;;;;;;;134.27;127.65;;;;;;;;;;5037939;28;20041;-61
2022/08/22 08:53:08;;;;;;;94.65;89.88;;;;;;;;;;5035389;28;20044;-62
2022/08/22 08:55:56;;;;;;;174.40;165.80;;;;;;;;;;5035296;28;20041;-61
2022/08/22 08:58:56;;;;;;;165.43;157.25;;;;;;;;;;5036774;28;20033;-60
2022/08/22 09:01:33;;;;;;;157.93;150.13;;;;;;;;;;5038323;28;20100;-62
2022/08/22 09:04:05;;;;;;;210.73;200.32;;;;;;;;;;5038083;28;20198;-62
2022/08/22 09:06:39;;;;;;;209.23;199.02;;;;;;;;;;5039430;28;20052;-63
2022/08/22 09:09:30;;;;;;;185.20;176.13;;;;;;;;;;5035850;28;20108;-62
2022/08/22 09:12:14;;;;;;;236.88;225.40;;;;;;;;;;5037814;28;20049;-62
2022/08/22 09:15:16;;;;;;;257.15;244.65;;;;;;;;;;5038521;28;20045;-62
2022/08/22 09:18:26;;;;;;;223.90;212.98;;;;;;;;;;5033762;28;20041;-62
2022/08/22 09:21:03;;;;;;;266.05;252.85;;;;;;;;;;5037639;28;20041;-62
2022/08/22 09:23:53;;;;;;;293.40;278.98;;;;;;;;;;5045519;28;20045;-61
2022/08/22 09:26:28;;;;;;;;;;;;;;;;;;5037214;28;20029;-63
2022/08/22 09:29:32;;;;;;;281.48;267.52;;;;;;;;;;5037553;28;19928;-64
2022/08/22 09:32:09;;;;;;;320.48;304.73;;;;;;;;;;5037458;28;20060;-64
2022/08/22 09:34:55;;;;;;;319.20;303.52;;;;;;;;;;5038685;28;20029;-62
2022/08/22 09:37:27;;;;;;;310.98;295.70;;;;;;;;;;5037396;28;20646;-63
2022/08/22 09:40:14;;;;;;;356.60;338.80;;;;;;;;;;5037253;28;20045;-63
2022/08/22 09:43:07;;;;;;;329.52;313.35;;;;;;;;;;5037848;28;20021;-62
2022/08/22 09:46:00;;;;;;;321.63;305.80;;;;;;;;;;5035092;28;20021;-62
2022/08/22 09:48:38;;;;;;;364.75;346.45;;;;;;;;;;5033060;28;20037;-64
2022/08/22 09:51:13;;;;;;;344.98;327.88;;;;;;;;;;5038176;28;20030;-67
2022/08/22 09:53:48;;;;;;;423.95;401.92;;;;;;;;;;5037312;28;20025;-63
2022/08/22 09:56:30;;;;;;;433.50;411.10;;;;;;;;;;5034872;28;20430;-64
2022/08/22 09:59:11;;;;;;;351.00;333.50;;;;;;;;;;5036314;28;20032;-64
2022/08/22 10:01:40;;;;;;;378.13;359.15;;;;;;;;;;5036631;28;20113;-63
2022/08/22 10:04:05;;;;;;;411.92;390.90;;;;;;;;;;5036565;28;20064;-63
2022/08/22 10:06:54;;;;;;;413.98;392.63;;;;;;;;;;5035698;28;20077;-65
2022/08/22 10:09:38;;;;;;;274.40;261.02;;;;;;;;;;5023345;28;20049;-64
2022/08/22 10:12:09;;;;;;;368.42;349.88;;;;;;;;;;5043935;28;20036;-63
2022/08/22 10:15:11;;;;;;;213.65;203.13;;;;;;;;;;5035737;28;20032;-62
2022/08/22 10:17:44;;;;;;;385.40;365.70;;;;;;;;;;5034754;28;20041;-62
2022/08/22 10:20:23;;;;;;;161.80;153.75;;;;;;;;;;5034600;28;20402;-62
2022/08/22 10:23:04;;;;;;;341.37;324.07;;;;;;;;;;5036539;28;20094;-61
2022/08/22 10:25:35;;;;;;;131.23;124.72;;;;;;;;;;5036128;28;20029;-61
2022/08/22 10:28:49;;;;;;;112.05;106.47;;;;;;;;;;5037866;28;20124;-62
2022/08/22 10:31:39;;;;;;;85.18;80.88;;;;;;;;;;4998810;28;20064;-61
2022/08/22 10:34:16;;;;;;;73.10;69.43;;;;;;;;;;5038482;28;20107;-61
2022/08/22 10:37:14;;;;;;;143.95;136.85;;;;;;;;;;5035802;28;20037;-61
2022/08/22 10:39:46;;;;;;;295.85;281.35;;;;;;;;;;5037632;28;20413;-60
2022/08/22 10:42:22;;;;;;;78.00;74.10;;;;;;;;;;5033649;28;20092;-61
2022/08/22 10:44:54;;;;;;;76.32;72.53;;;;;;;;;;5038025;28;20566;-61
2022/08/22 10:47:25;;;;;;;72.07;68.47;;;;;;;;;;5036519;28;21076;-62
2022/08/22 10:50:03;;;;;;;66.18;62.85;;;;;;;;;;5036471;28;20079;-61
2022/08/22 10:53:28;;;;;;;124.80;118.65;;;;;;;;;;5034762;28;20037;-61
2022/08/22 10:55:40;;;;;;;355.33;337.23;;;;;;;;;;5044224;28;20028;-61
2022/08/22 10:58:11;;;;;;;115.85;110.00;;;;;;;;;;5037489;28;20494;-62
2022/08/22 11:01:03;;;;;;;84.18;79.93;;;;;;;;;;5039237;28;20474;-63
2022/08/22 11:04:06;;;;;;;108.18;102.68;;;;;;;;;;5029250;28;20048;-63
2022/08/22 11:06:48;;;;;;;105.68;100.47;;;;;;;;;;5037590;28;20037;-65
2022/08/22 11:09:22;;;;;;;94.78;90.13;;;;;;;;;;5036916;28;20025;-63
2022/08/22 11:12:02;;;;;;;97.53;92.72;;;;;;;;;;5035312;28;20071;-62
2022/08/22 11:14:33;;;;;;;145.23;138.05;;;;;;;;;;5038057;28;20052;-63
2022/08/22 11:17:14;;;;;;;102.38;97.35;;;;;;;;;;5036126;28;20445;-64
2022/08/22 11:20:12;;;;;;;151.60;144.15;;;;;;;;;;5039985;28;20028;-63
2022/08/22 11:22:56;;;;;;;118.40;112.60;;;;;;;;;;5035795;28;20138;-64
2022/08/22 11:25:40;;;;;;;113.03;107.47;;;;;;;;;;5033987;28;20453;-63
2022/08/22 11:28:33;;;;;;;101.18;96.20;;;;;;;;;;5032739;28;20411;-63
2022/08/22 11:31:24;;;;;;;119.20;113.35;;;;;;;;;;5004501;28;20044;-65
2022/08/22 11:34:17;;;;;;;124.53;118.38;;;;;;;;;;5021295;28;20118;-64
2022/08/22 11:36:48;;;;;;;121.00;115.05;;;;;;;;;;5037113;28;20037;-65
2022/08/22 11:39:44;;;;;;;125.40;119.22;;;;;;;;;;5034787;28;20032;-65
2022/08/22 11:42:22;;;;;;;110.60;105.15;;;;;;;;;;5037030;28;20037;-64
2022/08/22 11:44:55;;;;;;;117.15;111.40;;;;;;;;;;5037691;28;20354;-64
2022/08/22 11:47:30;;;;;;;112.30;106.80;;;;;;;;;;5042678;28;20603;-65
2022/08/22 11:50:22;;;;;;;114.97;109.35;;;;;;;;;;5036032;28;20028;-64
2022/08/22 11:53:03;;;;;;;114.50;108.88;;;;;;;;;;5025493;28;20045;-64
2022/08/22 11:55:42;;;;;;;118.05;112.25;;;;;;;;;;5020436;28;20095;-64
2022/08/22 11:58:33;;;;;;;124.70;118.57;;;;;;;;;;5035352;28;20076;-64
2022/08/22 12:01:18;;;;;;;118.55;112.75;;;;;;;;;;5034713;28;20045;-63
2022/08/22 12:04:22;;;;;;;124.00;117.90;;;;;;;;;;5034433;28;20033;-63
2022/08/22 12:07:12;;;;;;;119.35;113.43;;;;;;;;;;5023152;28;20053;-63
2022/08/22 12:09:50;;;;;;;123.40;117.35;;;;;;;;;;5034724;28;20539;-64
2022/08/22 12:12:19;;;;;;;117.75;111.95;;;;;;;;;;5033003;28;20025;-64
2022/08/22 12:15:05;;;;;;;115.75;110.05;;;;;;;;;;5035767;28;20043;-63
2022/08/22 12:18:02;;;;;;;99.57;94.68;;;;;;;;;;5032087;28;20037;-64
2022/08/22 12:20:48;;;;;;;117.82;112.03;;;;;;;;;;5032920;28;20083;-65
2022/08/22 12:23:23;;;;;;;91.40;86.88;;;;;;;;;;5036070;28;20116;-64
2022/08/22 12:26:18;;;;;;;94.03;89.32;;;;;;;;;;5035074;28;20029;-65
2022/08/22 12:29:02;;;;;;;115.15;109.50;;;;;;;;;;5002118;28;20057;-64
2022/08/22 12:31:36;;;;;;;126.97;120.72;;;;;;;;;;5031825;28;20087;-63
2022/08/22 12:34:31;;;;;;;84.85;80.65;;;;;;;;;;5033832;28;20505;-65
2022/08/22 12:37:14;;;;;;;95.95;91.18;;;;;;;;;;5035060;28;20044;-65
2022/08/22 12:40:20;;;;;;;72.18;68.57;;;;;;;;;;5033694;28;20036;-64
2022/08/22 12:43:17;;;;;;;75.30;71.57;;;;;;;;;;5034695;28;20407;-62
2022/08/22 12:46:04;;;;;;;87.22;82.93;;;;;;;;;;4984450;28;20045;-63
2022/08/22 12:48:54;;;;;;;96.75;91.95;;;;;;;;;;5034604;28;20323;-62
2022/08/22 12:51:45;;;;;;;105.32;100.13;;;;;;;;;;5035589;28;20033;-63
2022/08/22 12:54:35;;;;;;;86.43;82.18;;;;;;;;;;5035080;28;20044;-63
2022/08/22 12:57:22;;;;;;;83.22;79.07;;;;;;;;;;5036171;28;20103;-62
2022/08/22 12:59:52;;;;;;;72.93;69.28;;;;;;;;;;5035080;28;20467;-63
2022/08/22 13:02:24;;;;;;;93.00;88.40;;;;;;;;;;5034513;28;20026;-62
2022/08/22 13:05:09;;;;;;;104.53;99.35;;;;;;;;;;5034840;28;20085;-62
2022/08/22 13:07:39;;;;;;;92.95;88.07;;;;;;;;;;5032804;28;20094;-62
2022/08/22 13:10:36;;;;;;;114.00;108.43;;;;;;;;;;5034483;28;20661;-63
2022/08/22 13:13:04;;;;;;;80.95;76.95;;;;;;;;;;5033868;28;20080;-63
2022/08/22 13:15:59;;;;;;;104.50;99.35;;;;;;;;;;5034523;28;20048;-63
2022/08/22 13:18:31;;;;;;;79.35;75.32;;;;;;;;;;5018575;28;20087;-63
2022/08/22 13:21:00;;;;;;;102.55;97.53;;;;;;;;;;5039861;28;20028;-63
2022/08/22 13:23:30;;;;;;;85.15;80.78;;;;;;;;;;5039911;28;20347;-63
2022/08/22 13:26:04;;;;;;;;;;;;;;;;;;5043044;28;20581;-63
2022/08/22 13:28:34;;;;;;;71.57;68.00;;;;;;;;;;5037489;28;19919;-63
2022/08/22 13:31:01;;;;;;;116.72;110.93;;;;;;;;;;5035996;28;20033;-62
2022/08/22 13:33:45;;;;;;;79.40;75.45;;;;;;;;;;5029639;28;20037;-62
2022/08/22 13:36:16;;;;;;;80.78;76.78;;;;;;;;;;5047100;28;20020;-63
2022/08/22 13:39:05;;;;;;;83.22;79.13;;;;;;;;;;5037994;28;20083;-64
2022/08/22 13:41:42;;;;;;;71.07;67.57;;;;;;;;;;5039084;28;20033;-63
2022/08/22 13:44:08;;;;;;;71.28;67.72;;;;;;;;;;5037504;28;20123;-62
2022/08/22 13:46:36;;;;;;;74.50;70.80;;;;;;;;;;5040636;28;20108;-61
2022/08/22 13:49:08;;;;;;;79.78;75.88;;;;;;;;;;5039510;28;20049;-61
2022/08/22 13:52:01;;;;;;;77.22;73.43;;;;;;;;;;5038213;28;20029;-61
2022/08/22 13:54:59;;;;;;;83.90;79.75;;;;;;;;;;5039007;28;20363;-61
2022/08/22 13:57:31;;;;;;;78.78;74.88;;;;;;;;;;4991803;28;20034;-61
2022/08/22 14:00:11;;;;;;;79.70;75.60;;;;;;;;;;5039073;28;20056;-61
2022/08/22 14:02:59;;;;;;;76.88;73.07;;;;;;;;;;5039666;28;20045;-61
2022/08/22 14:05:33;;;;;;;71.90;68.35;;;;;;;;;;5035444;28;20033;-61
2022/08/22 14:08:16;;;;;;;79.43;75.53;;;;;;;;;;5037847;28;20112;-61
2022/08/22 14:10:48;;;;;;;74.00;70.30;;;;;;;;;;5036518;28;20117;-61
2022/08/22 14:13:31;;;;;;;70.40;66.90;;;;;;;;;;5040292;28;20114;-61
2022/08/22 14:15:59;;;;;;;69.03;65.55;;;;;;;;;;5041252;28;20036;-62
2022/08/22 14:18:30;;;;;;;68.30;64.90;;;;;;;;;;5038487;28;20061;-61
2022/08/22 14:21:15;;;;;;;69.68;66.18;;;;;;;;;;5037924;28;20041;-61
2022/08/22 14:23:42;;;;;;;65.60;62.30;;;;;;;;;;5037380;28;20036;-61
2022/08/22 14:26:07;;;;;;;63.15;59.97;;;;;;;;;;5037090;28;20037;-61
2022/08/22 14:28:37;;;;;;;71.47;67.78;;;;;;;;;;5037387;28;20051;-61
2022/08/22 14:31:10;;;;;;;64.78;61.58;;;;;;;;;;5038101;28;20037;-61
2022/08/22 14:33:50;;;;;;;85.00;80.78;;;;;;;;;;5037695;28;20689;-61
2022/08/22 14:36:18;;;;;;;;;;;;;;;;;;5036562;28;20115;-62
2022/08/22 14:38:50;;;;;;;75.57;71.82;;;;;;;;;;5035503;28;20012;-62
2022/08/22 14:41:15;;;;;;;88.68;84.30;;;;;;;;;;5038355;28;20029;-61
2022/08/22 14:44:01;;;;;;;91.47;86.80;;;;;;;;;;5037385;28;20044;-62
2022/08/22 14:46:40;;;;;;;68.53;65.03;;;;;;;;;;5036706;28;20116;-61
2022/08/22 14:49:17;;;;;;;86.18;81.80;;;;;;;;;;5038136;28;20060;-62
2022/08/22 14:51:51;;;;;;;96.57;91.72;;;;;;;;;;5040976;28;20064;-61
2022/08/22 14:54:20;;;;;;;70.05;66.55;;;;;;;;;;5039432;28;20070;-61
2022/08/22 14:56:47;;;;;;;74.57;70.88;;;;;;;;;;5037893;28;20120;-61
2022/08/22 14:59:32;;;;;;;73.97;70.30;;;;;;;;;;5035554;28;20033;-61
2022/08/22 15:02:02;;;;;;;69.72;66.22;;;;;;;;;;5039219;28;20037;-61
2022/08/22 15:04:32;;;;;;;;;;;;;;;;;;5036297;28;20179;-61
2022/08/22 15:06:58;;;;;;;64.70;61.47;;;;;;;;;;5035456;28;19912;-61
2022/08/22 15:09:35;;;;;;;70.63;67.13;;;;;;;;;;5038110;28;20044;-61
2022/08/22 15:12:02;;;;;;;64.18;60.97;;;;;;;;;;5038822;28;20036;-61
2022/08/22 15:14:34;;;;;;;64.93;61.67;;;;;;;;;;5035705;28;20041;-61
2022/08/22 15:17:03;;;;;;;63.72;60.53;;;;;;;;;;5038575;28;20057;-63
2022/08/22 15:19:31;;;;;;;63.85;60.65;;;;;;;;;;5038284;28;20139;-63
2022/08/22 15:22:26;;;;;;;100.05;95.15;;;;;;;;;;5039092;28;20410;-63
2022/08/22 15:25:04;;;;;;;89.05;84.65;;;;;;;;;;5038341;28;20028;-62
2022/08/22 15:27:34;;;;;;;68.70;65.28;;;;;;;;;;5039388;28;20048;-62
2022/08/22 15:30:05;;;;;;;68.07;64.68;;;;;;;;;;5037490;28;20040;-63
2022/08/22 15:32:38;;;;;;;83.50;79.40;;;;;;;;;;5037740;28;20048;-62
2022/08/22 15:35:05;;;;;;;79.50;75.57;;;;;;;;;;5037083;28;20374;-63